sensor_id;sensor_type;location;lat;lon;timestamp;temperature;humidity
816;DHT22;25928;51.062;13.752;2022-12-18T00:01:14;-3.30;1.00
816;DHT22;25928;51.062;13.752;2022-12-18T00:03:40;-3.40;1.00
816;DHT22;25928;51.062;13.752;2022-12-18T00:06:05;-3.40;1.00
816;DHT22;25928;51.062;13.752;2022-12-18T00:08:31;-3.40;1.00
816;DHT22;25928;51.062;13.752;2022-12-18T00:11:04;-3.40;1.00
816;DHT22;25928;51.062;13.752;2022-12-18T00:13:30;-3.50;1.00
816;DHT22;25928;51.062;13.752;2022-12-18T00:15:55;-3.40;1.00
816;DHT22;25928;51.062;13.752;2022-12-18T00:18:26;-3.50;1.00
816;DHT22;25928;51.062;13.752;2022-12-18T00:20:51;-3.60;1.00
816;DHT22;25928;51.062;13.752;2022-12-18T00:23:17;-3.50;1.00
816;DHT22;25928;51.062;13.752;2022-12-18T00:25:42;-3.40;1.00
816;DHT22;25928;51.062;13.752;2022-12-18T00:28:08;-3.40;1.00
816;DHT22;25928;51.062;13.752;2022-12-18T00:30:34;-3.50;1.00
816;DHT22;25928;51.062;13.752;2022-12-18T00:32:59;-3.50;1.00
816;DHT22;25928;51.062;13.752;2022-12-18T00:35:25;-3.40;1.00
816;DHT22;25928;51.062;13.752;2022-12-18T00:37:50;-3.40;1.00
816;DHT22;25928;51.062;13.752;2022-12-18T00:40:16;-3.40;1.00
816;DHT22;25928;51.062;13.752;2022-12-18T00:42:42;-3.30;1.00
816;DHT22;25928;51.062;13.752;2022-12-18T00:45:30;-3.40;1.00
816;DHT22;25928;51.062;13.752;2022-12-18T00:47:56;-3.40;1.00
816;DHT22;25928;51.062;13.752;2022-12-18T00:50:23;-3.40;1.00
816;DHT22;25928;51.062;13.752;2022-12-18T00:52:49;-3.50;1.00
816;DHT22;25928;51.062;13.752;2022-12-18T00:55:15;-3.60;1.00
816;DHT22;25928;51.062;13.752;2022-12-18T00:57:41;-3.60;1.00
816;DHT22;25928;51.062;13.752;2022-12-18T01:00:11;-3.70;1.00
816;DHT22;25928;51.062;13.752;2022-12-18T01:02:37;-3.70;1.00
816;DHT22;25928;51.062;13.752;2022-12-18T01:05:03;-3.70;1.00
816;DHT22;25928;51.062;13.752;2022-12-18T01:07:29;-3.80;1.00
816;DHT22;25928;51.062;13.752;2022-12-18T01:09:54;-3.90;1.00
816;DHT22;25928;51.062;13.752;2022-12-18T01:12:20;-3.90;1.00
816;DHT22;25928;51.062;13.752;2022-12-18T01:14:45;-3.80;1.00
816;DHT22;25928;51.062;13.752;2022-12-18T01:17:11;-3.90;1.00
816;DHT22;25928;51.062;13.752;2022-12-18T01:19:37;-3.90;1.00
816;DHT22;25928;51.062;13.752;2022-12-18T01:22:02;-3.90;1.00
816;DHT22;25928;51.062;13.752;2022-12-18T01:24:28;-3.90;1.00
816;DHT22;25928;51.062;13.752;2022-12-18T01:26:54;-3.90;1.00
816;DHT22;25928;51.062;13.752;2022-12-18T01:29:20;-3.90;1.00
816;DHT22;25928;51.062;13.752;2022-12-18T01:31:45;-3.90;1.00
816;DHT22;25928;51.062;13.752;2022-12-18T01:34:11;-4.00;1.00
816;DHT22;25928;51.062;13.752;2022-12-18T01:36:38;-3.90;1.00
816;DHT22;25928;51.062;13.752;2022-12-18T01:39:10;-3.90;1.00
816;DHT22;25928;51.062;13.752;2022-12-18T01:41:37;-4.00;1.00
816;DHT22;25928;51.062;13.752;2022-12-18T01:47:28;-4.00;1.00
816;DHT22;25928;51.062;13.752;2022-12-18T01:49:57;-4.10;1.00
816;DHT22;25928;51.062;13.752;2022-12-18T01:52:25;-4.10;1.00
816;DHT22;25928;51.062;13.752;2022-12-18T01:54:52;-4.10;1.00
816;DHT22;25928;51.062;13.752;2022-12-18T01:57:18;-4.20;1.00
816;DHT22;25928;51.062;13.752;2022-12-18T01:59:46;-4.20;1.00
816;DHT22;25928;51.062;13.752;2022-12-18T02:02:14;-4.10;1.00
816;DHT22;25928;51.062;13.752;2022-12-18T02:04:40;-4.10;1.00
816;DHT22;25928;51.062;13.752;2022-12-18T02:07:30;-4.20;1.00
816;DHT22;25928;51.062;13.752;2022-12-18T02:18:12;-4.30;1.00
816;DHT22;25928;51.062;13.752;2022-12-18T02:26:37;-4.40;1.00
816;DHT22;25928;51.062;13.752;2022-12-18T02:29:13;-4.40;1.00
816;DHT22;25928;51.062;13.752;2022-12-18T02:31:45;-4.40;1.00
816;DHT22;25928;51.062;13.752;2022-12-18T02:34:12;-4.40;1.00
816;DHT22;25928;51.062;13.752;2022-12-18T02:36:40;-4.50;1.00
816;DHT22;25928;51.062;13.752;2022-12-18T02:39:10;-4.40;1.00
816;DHT22;25928;51.062;13.752;2022-12-18T02:41:37;-4.30;1.00
816;DHT22;25928;51.062;13.752;2022-12-18T02:44:11;-4.20;1.00
816;DHT22;25928;51.062;13.752;2022-12-18T02:46:49;-4.00;1.00
816;DHT22;25928;51.062;13.752;2022-12-18T02:49:36;-3.90;1.00
816;DHT22;25928;51.062;13.752;2022-12-18T02:52:24;-3.90;1.00
816;DHT22;25928;51.062;13.752;2022-12-18T02:55:42;-3.80;1.00
816;DHT22;25928;51.062;13.752;2022-12-18T03:04:01;-3.70;1.00
816;DHT22;25928;51.062;13.752;2022-12-18T03:06:35;-3.70;1.00
816;DHT22;25928;51.062;13.752;2022-12-18T03:09:12;-3.30;1.00
816;DHT22;25928;51.062;13.752;2022-12-18T03:11:43;-3.60;1.00
816;DHT22;25928;51.062;13.752;2022-12-18T03:14:30;-3.70;1.00
816;DHT22;25928;51.062;13.752;2022-12-18T03:17:01;-3.70;1.00
816;DHT22;25928;51.062;13.752;2022-12-18T03:19:29;-3.60;1.00
816;DHT22;25928;51.062;13.752;2022-12-18T03:21:58;-3.60;1.00
816;DHT22;25928;51.062;13.752;2022-12-18T03:24:28;-3.60;1.00
816;DHT22;25928;51.062;13.752;2022-12-18T03:27:01;-3.60;1.00
816;DHT22;25928;51.062;13.752;2022-12-18T03:29:38;-3.60;1.00
816;DHT22;25928;51.062;13.752;2022-12-18T03:32:11;-3.50;1.00
816;DHT22;25928;51.062;13.752;2022-12-18T03:34:39;-3.40;1.00
816;DHT22;25928;51.062;13.752;2022-12-18T03:37:06;-3.50;1.00
816;DHT22;25928;51.062;13.752;2022-12-18T03:39:33;-3.40;1.00
816;DHT22;25928;51.062;13.752;2022-12-18T03:42:07;-3.40;1.00
816;DHT22;25928;51.062;13.752;2022-12-18T03:48:24;-3.50;1.00
816;DHT22;25928;51.062;13.752;2022-12-18T03:50:37;-3.50;1.00
816;DHT22;25928;51.062;13.752;2022-12-18T03:56:09;-3.70;1.00
816;DHT22;25928;51.062;13.752;2022-12-18T03:58:37;-3.80;1.00
816;DHT22;25928;51.062;13.752;2022-12-18T04:01:05;-3.90;1.00
816;DHT22;25928;51.062;13.752;2022-12-18T04:03:34;-4.00;1.00
816;DHT22;25928;51.062;13.752;2022-12-18T04:06:02;-4.10;1.00
816;DHT22;25928;51.062;13.752;2022-12-18T04:08:28;-4.20;1.00
816;DHT22;25928;51.062;13.752;2022-12-18T04:10:54;-4.30;1.00
816;DHT22;25928;51.062;13.752;2022-12-18T04:13:27;-4.40;1.00
816;DHT22;25928;51.062;13.752;2022-12-18T04:15:53;-4.50;1.00
816;DHT22;25928;51.062;13.752;2022-12-18T04:18:18;-4.50;1.00
816;DHT22;25928;51.062;13.752;2022-12-18T04:20:44;-4.60;1.00
816;DHT22;25928;51.062;13.752;2022-12-18T04:23:10;-4.60;1.00
816;DHT22;25928;51.062;13.752;2022-12-18T04:25:35;-4.70;1.00
816;DHT22;25928;51.062;13.752;2022-12-18T04:28:01;-4.70;1.00
816;DHT22;25928;51.062;13.752;2022-12-18T04:30:26;-4.60;1.00
816;DHT22;25928;51.062;13.752;2022-12-18T04:32:52;-4.70;1.00
816;DHT22;25928;51.062;13.752;2022-12-18T04:35:17;-4.70;1.00
816;DHT22;25928;51.062;13.752;2022-12-18T04:37:43;-4.70;1.00
816;DHT22;25928;51.062;13.752;2022-12-18T04:40:09;-4.60;1.00
816;DHT22;25928;51.062;13.752;2022-12-18T04:42:35;-4.70;1.00
816;DHT22;25928;51.062;13.752;2022-12-18T04:45:00;-4.70;1.00
816;DHT22;25928;51.062;13.752;2022-12-18T04:47:26;-4.70;1.00
816;DHT22;25928;51.062;13.752;2022-12-18T04:49:51;-4.80;1.00
816;DHT22;25928;51.062;13.752;2022-12-18T04:52:17;-4.80;1.00
816;DHT22;25928;51.062;13.752;2022-12-18T04:54:43;-4.90;1.00
816;DHT22;25928;51.062;13.752;2022-12-18T04:57:08;-4.80;1.00
816;DHT22;25928;51.062;13.752;2022-12-18T04:59:34;-4.90;1.00
816;DHT22;25928;51.062;13.752;2022-12-18T05:01:59;-4.90;1.00
816;DHT22;25928;51.062;13.752;2022-12-18T05:04:25;-4.90;1.00
816;DHT22;25928;51.062;13.752;2022-12-18T05:06:51;-4.90;1.00
816;DHT22;25928;51.062;13.752;2022-12-18T05:09:16;-5.00;1.00
816;DHT22;25928;51.062;13.752;2022-12-18T05:11:42;-4.90;1.00
816;DHT22;25928;51.062;13.752;2022-12-18T05:14:07;-5.00;1.00
816;DHT22;25928;51.062;13.752;2022-12-18T05:16:33;-4.90;1.00
816;DHT22;25928;51.062;13.752;2022-12-18T05:18:59;-4.90;1.00
816;DHT22;25928;51.062;13.752;2022-12-18T05:21:24;-4.90;1.00
816;DHT22;25928;51.062;13.752;2022-12-18T05:23:50;-5.00;1.00
816;DHT22;25928;51.062;13.752;2022-12-18T05:26:17;-5.00;1.00
816;DHT22;25928;51.062;13.752;2022-12-18T05:28:46;-5.00;1.00
816;DHT22;25928;51.062;13.752;2022-12-18T05:31:12;-5.00;1.00
816;DHT22;25928;51.062;13.752;2022-12-18T05:33:38;-4.90;1.00
816;DHT22;25928;51.062;13.752;2022-12-18T05:36:06;-5.00;1.00
816;DHT22;25928;51.062;13.752;2022-12-18T05:38:34;-5.10;1.00
816;DHT22;25928;51.062;13.752;2022-12-18T05:41:00;-5.10;1.00
816;DHT22;25928;51.062;13.752;2022-12-18T05:43:26;-5.10;1.00
816;DHT22;25928;51.062;13.752;2022-12-18T05:45:52;-5.10;1.00
816;DHT22;25928;51.062;13.752;2022-12-18T05:48:18;-5.20;1.00
816;DHT22;25928;51.062;13.752;2022-12-18T05:50:45;-5.20;1.00
816;DHT22;25928;51.062;13.752;2022-12-18T05:53:12;-5.20;1.00
816;DHT22;25928;51.062;13.752;2022-12-18T05:55:39;-5.30;1.00
816;DHT22;25928;51.062;13.752;2022-12-18T05:58:06;-5.30;1.00
816;DHT22;25928;51.062;13.752;2022-12-18T06:00:35;-5.20;1.00
816;DHT22;25928;51.062;13.752;2022-12-18T06:03:01;-5.30;1.00
816;DHT22;25928;51.062;13.752;2022-12-18T06:05:27;-5.30;1.00
816;DHT22;25928;51.062;13.752;2022-12-18T06:07:53;-5.40;1.00
816;DHT22;25928;51.062;13.752;2022-12-18T06:10:19;-5.30;1.00
816;DHT22;25928;51.062;13.752;2022-12-18T06:12:44;-5.40;1.00
816;DHT22;25928;51.062;13.752;2022-12-18T06:15:10;-5.40;1.00
816;DHT22;25928;51.062;13.752;2022-12-18T06:17:36;-5.40;1.00
816;DHT22;25928;51.062;13.752;2022-12-18T06:20:03;-5.40;1.00
816;DHT22;25928;51.062;13.752;2022-12-18T06:22:31;-5.30;1.00
816;DHT22;25928;51.062;13.752;2022-12-18T06:24:57;-5.40;1.00
816;DHT22;25928;51.062;13.752;2022-12-18T06:27:23;-5.50;1.00
816;DHT22;25928;51.062;13.752;2022-12-18T06:29:48;-5.40;1.00
816;DHT22;25928;51.062;13.752;2022-12-18T06:32:14;-5.50;1.00
816;DHT22;25928;51.062;13.752;2022-12-18T06:34:40;-5.50;1.00
816;DHT22;25928;51.062;13.752;2022-12-18T06:37:05;-5.50;1.00
816;DHT22;25928;51.062;13.752;2022-12-18T06:39:31;-5.50;1.00
816;DHT22;25928;51.062;13.752;2022-12-18T06:41:56;-5.50;1.00
816;DHT22;25928;51.062;13.752;2022-12-18T06:44:22;-5.50;1.00
816;DHT22;25928;51.062;13.752;2022-12-18T06:46:48;-5.50;1.00
816;DHT22;25928;51.062;13.752;2022-12-18T06:49:14;-5.40;1.00
816;DHT22;25928;51.062;13.752;2022-12-18T06:51:41;-5.40;1.00
816;DHT22;25928;51.062;13.752;2022-12-18T06:54:07;-5.40;1.00
816;DHT22;25928;51.062;13.752;2022-12-18T06:56:33;-5.40;1.00
816;DHT22;25928;51.062;13.752;2022-12-18T06:58:59;-5.50;1.00
816;DHT22;25928;51.062;13.752;2022-12-18T07:01:25;-5.50;1.00
816;DHT22;25928;51.062;13.752;2022-12-18T07:03:52;-5.50;1.00
816;DHT22;25928;51.062;13.752;2022-12-18T07:06:21;-5.50;1.00
816;DHT22;25928;51.062;13.752;2022-12-18T07:08:48;-5.50;1.00
816;DHT22;25928;51.062;13.752;2022-12-18T07:11:14;-5.50;1.00
816;DHT22;25928;51.062;13.752;2022-12-18T07:13:40;-5.60;1.00
816;DHT22;25928;51.062;13.752;2022-12-18T07:16:14;-5.60;1.00
816;DHT22;25928;51.062;13.752;2022-12-18T07:18:40;-5.60;1.00
816;DHT22;25928;51.062;13.752;2022-12-18T07:21:08;-5.60;1.00
816;DHT22;25928;51.062;13.752;2022-12-18T07:23:35;-5.50;1.00
816;DHT22;25928;51.062;13.752;2022-12-18T07:26:06;-5.50;1.00
816;DHT22;25928;51.062;13.752;2022-12-18T07:28:33;-5.50;1.00
816;DHT22;25928;51.062;13.752;2022-12-18T07:31:03;-5.40;1.00
816;DHT22;25928;51.062;13.752;2022-12-18T07:33:29;-5.50;1.00
816;DHT22;25928;51.062;13.752;2022-12-18T07:35:54;-5.50;1.00
816;DHT22;25928;51.062;13.752;2022-12-18T07:38:21;-5.40;1.00
816;DHT22;25928;51.062;13.752;2022-12-18T07:40:46;-5.50;1.00
816;DHT22;25928;51.062;13.752;2022-12-18T07:43:12;-5.60;1.00
816;DHT22;25928;51.062;13.752;2022-12-18T07:45:37;-5.40;1.00
816;DHT22;25928;51.062;13.752;2022-12-18T07:48:04;-5.40;1.00
816;DHT22;25928;51.062;13.752;2022-12-18T07:50:29;-5.30;1.00
816;DHT22;25928;51.062;13.752;2022-12-18T07:52:55;-5.30;1.00
816;DHT22;25928;51.062;13.752;2022-12-18T07:55:20;-5.30;1.00
816;DHT22;25928;51.062;13.752;2022-12-18T07:57:46;-5.30;1.00
816;DHT22;25928;51.062;13.752;2022-12-18T08:00:12;-5.20;1.00
816;DHT22;25928;51.062;13.752;2022-12-18T08:02:38;-5.20;1.00
816;DHT22;25928;51.062;13.752;2022-12-18T08:05:04;-5.10;1.00
816;DHT22;25928;51.062;13.752;2022-12-18T08:07:29;-5.10;1.00
816;DHT22;25928;51.062;13.752;2022-12-18T08:09:55;-5.00;1.00
816;DHT22;25928;51.062;13.752;2022-12-18T08:12:20;-5.00;1.00
816;DHT22;25928;51.062;13.752;2022-12-18T08:14:46;-5.00;1.00
816;DHT22;25928;51.062;13.752;2022-12-18T08:17:12;-5.00;1.00
816;DHT22;25928;51.062;13.752;2022-12-18T08:19:37;-4.90;1.00
816;DHT22;25928;51.062;13.752;2022-12-18T08:22:03;-4.90;1.00
816;DHT22;25928;51.062;13.752;2022-12-18T08:24:28;-4.90;1.00
816;DHT22;25928;51.062;13.752;2022-12-18T08:26:54;-4.80;1.00
816;DHT22;25928;51.062;13.752;2022-12-18T08:29:20;-4.70;1.00
816;DHT22;25928;51.062;13.752;2022-12-18T08:31:45;-4.70;1.00
816;DHT22;25928;51.062;13.752;2022-12-18T08:34:11;-4.60;1.00
816;DHT22;25928;51.062;13.752;2022-12-18T08:36:36;-4.50;1.00
816;DHT22;25928;51.062;13.752;2022-12-18T08:39:02;-4.50;1.00
816;DHT22;25928;51.062;13.752;2022-12-18T08:41:28;-4.30;1.00
816;DHT22;25928;51.062;13.752;2022-12-18T08:43:53;-4.30;1.00
816;DHT22;25928;51.062;13.752;2022-12-18T08:46:40;-4.30;1.00
816;DHT22;25928;51.062;13.752;2022-12-18T08:49:07;-4.20;1.00
816;DHT22;25928;51.062;13.752;2022-12-18T08:51:34;-4.20;1.00
816;DHT22;25928;51.062;13.752;2022-12-18T08:54:00;-4.10;1.00
816;DHT22;25928;51.062;13.752;2022-12-18T08:56:26;-3.80;1.00
816;DHT22;25928;51.062;13.752;2022-12-18T08:58:53;-3.80;1.00
816;DHT22;25928;51.062;13.752;2022-12-18T09:01:19;-3.80;1.00
816;DHT22;25928;51.062;13.752;2022-12-18T09:03:45;-3.70;1.00
816;DHT22;25928;51.062;13.752;2022-12-18T09:06:15;-3.50;1.00
816;DHT22;25928;51.062;13.752;2022-12-18T09:08:42;-3.40;1.00
816;DHT22;25928;51.062;13.752;2022-12-18T09:11:19;-3.40;1.00
816;DHT22;25928;51.062;13.752;2022-12-18T09:13:45;-3.40;1.00
816;DHT22;25928;51.062;13.752;2022-12-18T09:16:11;-3.40;1.00
816;DHT22;25928;51.062;13.752;2022-12-18T09:18:37;-3.30;1.00
816;DHT22;25928;51.062;13.752;2022-12-18T09:21:30;-3.20;1.00
816;DHT22;25928;51.062;13.752;2022-12-18T09:23:56;-3.10;1.00
816;DHT22;25928;51.062;13.752;2022-12-18T09:26:23;-2.90;1.00
816;DHT22;25928;51.062;13.752;2022-12-18T09:28:49;-2.70;1.00
816;DHT22;25928;51.062;13.752;2022-12-18T09:31:16;-2.60;1.00
816;DHT22;25928;51.062;13.752;2022-12-18T09:33:42;-2.60;1.00
816;DHT22;25928;51.062;13.752;2022-12-18T09:36:10;-2.40;1.00
816;DHT22;25928;51.062;13.752;2022-12-18T09:38:36;-2.40;1.00
816;DHT22;25928;51.062;13.752;2022-12-18T09:41:19;-2.30;1.00
816;DHT22;25928;51.062;13.752;2022-12-18T09:43:52;-2.30;1.00
816;DHT22;25928;51.062;13.752;2022-12-18T09:46:33;-2.10;1.00
816;DHT22;25928;51.062;13.752;2022-12-18T09:49:02;-2.00;1.00
816;DHT22;25928;51.062;13.752;2022-12-18T09:51:37;-1.80;1.00
816;DHT22;25928;51.062;13.752;2022-12-18T09:54:16;-1.70;1.00
816;DHT22;25928;51.062;13.752;2022-12-18T09:56:44;-1.50;1.00
816;DHT22;25928;51.062;13.752;2022-12-18T09:59:30;-1.30;1.00
816;DHT22;25928;51.062;13.752;2022-12-18T10:01:57;-1.20;1.00
816;DHT22;25928;51.062;13.752;2022-12-18T10:04:23;-1.10;1.00
816;DHT22;25928;51.062;13.752;2022-12-18T10:09:55;-0.80;1.00
816;DHT22;25928;51.062;13.752;2022-12-18T10:14:56;-0.80;1.00
816;DHT22;25928;51.062;13.752;2022-12-18T10:20:27;-0.60;1.00
816;DHT22;25928;51.062;13.752;2022-12-18T10:23:23;-0.40;1.00
816;DHT22;25928;51.062;13.752;2022-12-18T10:26:07;-0.50;1.00
816;DHT22;25928;51.062;13.752;2022-12-18T10:28:35;0.90;1.00
816;DHT22;25928;51.062;13.752;2022-12-18T10:31:02;-0.50;1.00
816;DHT22;25928;51.062;13.752;2022-12-18T10:33:33;-0.50;1.00
816;DHT22;25928;51.062;13.752;2022-12-18T10:35:59;-0.40;1.00
816;DHT22;25928;51.062;13.752;2022-12-18T10:38:28;-0.40;1.00
816;DHT22;25928;51.062;13.752;2022-12-18T10:41:04;-0.30;1.00
816;DHT22;25928;51.062;13.752;2022-12-18T10:48:32;-0.20;1.00
816;DHT22;25928;51.062;13.752;2022-12-18T10:50:58;-0.20;1.00
816;DHT22;25928;51.062;13.752;2022-12-18T10:53:27;-0.20;1.00
816;DHT22;25928;51.062;13.752;2022-12-18T10:55:55;-0.10;1.00
816;DHT22;25928;51.062;13.752;2022-12-18T10:58:26;-0.10;1.00
816;DHT22;25928;51.062;13.752;2022-12-18T11:01:12;-0.10;1.00
816;DHT22;25928;51.062;13.752;2022-12-18T11:04:01;-0.10;1.00
816;DHT22;25928;51.062;13.752;2022-12-18T11:06:27;0.00;1.00
816;DHT22;25928;51.062;13.752;2022-12-18T11:11:25;0.10;1.00
816;DHT22;25928;51.062;13.752;2022-12-18T11:14:06;0.20;1.00
816;DHT22;25928;51.062;13.752;2022-12-18T11:16:44;0.20;1.00
816;DHT22;25928;51.062;13.752;2022-12-18T11:21:50;0.30;1.00
816;DHT22;25928;51.062;13.752;2022-12-18T11:24:32;0.20;1.00
816;DHT22;25928;51.062;13.752;2022-12-18T11:27:04;0.20;1.00
816;DHT22;25928;51.062;13.752;2022-12-18T11:29:39;0.20;1.00
816;DHT22;25928;51.062;13.752;2022-12-18T11:34:44;0.30;1.00
816;DHT22;25928;51.062;13.752;2022-12-18T11:37:11;0.30;1.00
816;DHT22;25928;51.062;13.752;2022-12-18T11:42:38;0.40;1.00
816;DHT22;25928;51.062;13.752;2022-12-18T11:50:28;0.30;1.00
816;DHT22;25928;51.062;13.752;2022-12-18T11:52:55;0.30;1.00
816;DHT22;25928;51.062;13.752;2022-12-18T12:06:44;0.30;1.00
816;DHT22;25928;51.062;13.752;2022-12-18T12:09:42;0.20;1.00
816;DHT22;25928;51.062;13.752;2022-12-18T12:12:31;0.20;1.00
816;DHT22;25928;51.062;13.752;2022-12-18T12:17:56;0.20;1.00
816;DHT22;25928;51.062;13.752;2022-12-18T12:25:41;0.20;1.00
816;DHT22;25928;51.062;13.752;2022-12-18T12:28:44;0.20;1.00
816;DHT22;25928;51.062;13.752;2022-12-18T12:37:32;0.50;1.00
816;DHT22;25928;51.062;13.752;2022-12-18T12:40:02;0.20;1.00
816;DHT22;25928;51.062;13.752;2022-12-18T12:42:46;0.30;1.00
816;DHT22;25928;51.062;13.752;2022-12-18T12:48:10;0.30;1.00
816;DHT22;25928;51.062;13.752;2022-12-18T12:50:40;0.20;1.00
816;DHT22;25928;51.062;13.752;2022-12-18T12:53:09;0.20;1.00
816;DHT22;25928;51.062;13.752;2022-12-18T12:55:40;0.20;1.00
816;DHT22;25928;51.062;13.752;2022-12-18T13:04:02;0.10;1.00
816;DHT22;25928;51.062;13.752;2022-12-18T13:06:43;0.00;1.00
816;DHT22;25928;51.062;13.752;2022-12-18T13:09:11;-0.10;1.00
816;DHT22;25928;51.062;13.752;2022-12-18T13:17:14;-0.20;1.00
816;DHT22;25928;51.062;13.752;2022-12-18T13:19:40;-0.30;1.00
816;DHT22;25928;51.062;13.752;2022-12-18T13:24:46;-0.40;1.00
816;DHT22;25928;51.062;13.752;2022-12-18T13:48:22;-0.50;1.00
816;DHT22;25928;51.062;13.752;2022-12-18T13:51:09;-0.60;1.00
816;DHT22;25928;51.062;13.752;2022-12-18T13:53:59;-0.50;1.00
816;DHT22;25928;51.062;13.752;2022-12-18T13:56:31;-0.60;1.00
816;DHT22;25928;51.062;13.752;2022-12-18T13:59:32;-0.60;1.00
816;DHT22;25928;51.062;13.752;2022-12-18T14:02:00;-0.60;1.00
816;DHT22;25928;51.062;13.752;2022-12-18T14:04:33;-0.60;1.00
816;DHT22;25928;51.062;13.752;2022-12-18T14:09:39;-0.70;1.00
816;DHT22;25928;51.062;13.752;2022-12-18T14:12:06;-0.80;1.00
816;DHT22;25928;51.062;13.752;2022-12-18T14:14:58;-0.90;1.00
816;DHT22;25928;51.062;13.752;2022-12-18T14:17:25;-0.90;1.00
816;DHT22;25928;51.062;13.752;2022-12-18T14:19:51;-0.90;1.00
816;DHT22;25928;51.062;13.752;2022-12-18T14:22:22;-0.90;1.00
816;DHT22;25928;51.062;13.752;2022-12-18T14:25:15;-0.90;1.00
816;DHT22;25928;51.062;13.752;2022-12-18T14:27:44;-1.00;1.00
816;DHT22;25928;51.062;13.752;2022-12-18T14:35:40;-1.10;1.00
816;DHT22;25928;51.062;13.752;2022-12-18T14:38:27;-1.20;1.00
816;DHT22;25928;51.062;13.752;2022-12-18T14:41:13;-1.20;1.00
816;DHT22;25928;51.062;13.752;2022-12-18T14:43:41;-1.30;1.00
816;DHT22;25928;51.062;13.752;2022-12-18T14:48:51;-1.30;1.00
816;DHT22;25928;51.062;13.752;2022-12-18T14:51:19;-1.30;1.00
816;DHT22;25928;51.062;13.752;2022-12-18T14:53:54;-1.40;1.00
816;DHT22;25928;51.062;13.752;2022-12-18T14:56:29;-1.40;1.00
816;DHT22;25928;51.062;13.752;2022-12-18T15:01:32;-1.50;1.00
816;DHT22;25928;51.062;13.752;2022-12-18T15:03:59;-1.50;1.00
816;DHT22;25928;51.062;13.752;2022-12-18T15:08:58;-1.60;1.00
816;DHT22;25928;51.062;13.752;2022-12-18T15:11:36;-1.70;1.00
816;DHT22;25928;51.062;13.752;2022-12-18T15:14:31;-1.60;1.00
816;DHT22;25928;51.062;13.752;2022-12-18T15:16:59;-1.70;1.00
816;DHT22;25928;51.062;13.752;2022-12-18T15:19:45;-1.70;1.00
816;DHT22;25928;51.062;13.752;2022-12-18T15:22:34;-1.80;1.00
816;DHT22;25928;51.062;13.752;2022-12-18T15:25:02;-1.80;1.00
816;DHT22;25928;51.062;13.752;2022-12-18T15:27:30;-1.90;1.00
816;DHT22;25928;51.062;13.752;2022-12-18T15:32:43;-1.90;1.00
816;DHT22;25928;51.062;13.752;2022-12-18T15:37:34;-2.00;1.00
816;DHT22;25928;51.062;13.752;2022-12-18T15:40:00;-2.00;1.00
816;DHT22;25928;51.062;13.752;2022-12-18T15:42:27;-2.00;1.00
816;DHT22;25928;51.062;13.752;2022-12-18T15:45:12;-2.00;1.00
816;DHT22;25928;51.062;13.752;2022-12-18T15:47:38;-2.00;1.00
816;DHT22;25928;51.062;13.752;2022-12-18T15:50:05;-2.00;1.00
816;DHT22;25928;51.062;13.752;2022-12-18T15:52:40;-2.00;1.00
816;DHT22;25928;51.062;13.752;2022-12-18T15:55:18;-2.00;1.00
816;DHT22;25928;51.062;13.752;2022-12-18T15:58:06;-2.00;1.00
816;DHT22;25928;51.062;13.752;2022-12-18T16:00:34;-2.10;1.00
816;DHT22;25928;51.062;13.752;2022-12-18T16:03:00;-2.10;6.10
816;DHT22;25928;51.062;13.752;2022-12-18T16:05:27;-2.00;99.90
816;DHT22;25928;51.062;13.752;2022-12-18T16:07:52;-2.00;99.90
816;DHT22;25928;51.062;13.752;2022-12-18T16:10:19;-2.00;99.90
816;DHT22;25928;51.062;13.752;2022-12-18T16:12:44;-2.00;52.40
816;DHT22;25928;51.062;13.752;2022-12-18T16:15:12;-2.00;58.50
816;DHT22;25928;51.062;13.752;2022-12-18T16:17:39;-2.00;62.20
816;DHT22;25928;51.062;13.752;2022-12-18T16:20:15;-2.10;54.10
816;DHT22;25928;51.062;13.752;2022-12-18T16:22:42;-2.00;1.00
816;DHT22;25928;51.062;13.752;2022-12-18T16:25:20;-2.00;1.00
816;DHT22;25928;51.062;13.752;2022-12-18T16:27:49;-2.00;1.00
816;DHT22;25928;51.062;13.752;2022-12-18T16:30:17;-2.10;1.00
816;DHT22;25928;51.062;13.752;2022-12-18T16:32:43;-2.10;1.00
816;DHT22;25928;51.062;13.752;2022-12-18T16:35:13;-2.10;1.00
816;DHT22;25928;51.062;13.752;2022-12-18T16:37:40;-2.10;1.00
816;DHT22;25928;51.062;13.752;2022-12-18T16:40:11;-2.00;1.00
816;DHT22;25928;51.062;13.752;2022-12-18T16:42:39;-2.00;1.00
816;DHT22;25928;51.062;13.752;2022-12-18T16:45:06;-2.00;1.00
816;DHT22;25928;51.062;13.752;2022-12-18T16:47:32;-2.00;1.00
816;DHT22;25928;51.062;13.752;2022-12-18T16:49:58;-2.00;1.00
816;DHT22;25928;51.062;13.752;2022-12-18T16:52:24;-2.00;3.70
816;DHT22;25928;51.062;13.752;2022-12-18T16:54:49;-2.00;1.00
816;DHT22;25928;51.062;13.752;2022-12-18T16:57:17;-1.90;1.00
816;DHT22;25928;51.062;13.752;2022-12-18T16:59:43;-1.90;1.00
816;DHT22;25928;51.062;13.752;2022-12-18T17:02:23;-1.90;1.00
816;DHT22;25928;51.062;13.752;2022-12-18T17:04:52;-1.90;1.00
816;DHT22;25928;51.062;13.752;2022-12-18T17:07:17;-1.80;1.00
816;DHT22;25928;51.062;13.752;2022-12-18T17:09:43;-1.90;1.00
816;DHT22;25928;51.062;13.752;2022-12-18T17:12:09;-1.90;1.00
816;DHT22;25928;51.062;13.752;2022-12-18T17:14:35;-1.90;1.00
816;DHT22;25928;51.062;13.752;2022-12-18T17:17:01;-1.90;12.20
816;DHT22;25928;51.062;13.752;2022-12-18T17:19:27;-1.90;1.00
816;DHT22;25928;51.062;13.752;2022-12-18T17:21:53;-1.90;1.00
816;DHT22;25928;51.062;13.752;2022-12-18T17:24:20;-1.90;1.00
816;DHT22;25928;51.062;13.752;2022-12-18T17:26:46;-1.90;1.00
816;DHT22;25928;51.062;13.752;2022-12-18T17:29:14;-1.90;18.00
816;DHT22;25928;51.062;13.752;2022-12-18T17:31:40;-1.90;1.00
816;DHT22;25928;51.062;13.752;2022-12-18T17:34:08;-1.90;1.00
816;DHT22;25928;51.062;13.752;2022-12-18T17:36:34;-1.90;1.00
816;DHT22;25928;51.062;13.752;2022-12-18T17:39:00;-1.90;33.50
816;DHT22;25928;51.062;13.752;2022-12-18T17:41:27;-1.90;74.10
816;DHT22;25928;51.062;13.752;2022-12-18T17:43:54;-1.90;4.30
816;DHT22;25928;51.062;13.752;2022-12-18T17:46:20;-1.80;1.00
816;DHT22;25928;51.062;13.752;2022-12-18T17:48:46;-1.80;22.10
816;DHT22;25928;51.062;13.752;2022-12-18T17:51:15;-1.70;1.00
816;DHT22;25928;51.062;13.752;2022-12-18T17:53:41;-1.70;1.00
816;DHT22;25928;51.062;13.752;2022-12-18T17:56:08;-1.60;1.00
816;DHT22;25928;51.062;13.752;2022-12-18T17:58:36;-1.60;1.00
816;DHT22;25928;51.062;13.752;2022-12-18T18:01:05;-1.60;1.00
816;DHT22;25928;51.062;13.752;2022-12-18T18:03:31;-1.70;1.00
816;DHT22;25928;51.062;13.752;2022-12-18T18:05:59;-1.70;1.00
816;DHT22;25928;51.062;13.752;2022-12-18T18:08:25;-1.60;19.10
816;DHT22;25928;51.062;13.752;2022-12-18T18:10:51;-1.60;1.00
816;DHT22;25928;51.062;13.752;2022-12-18T18:13:20;-1.60;1.00
816;DHT22;25928;51.062;13.752;2022-12-18T18:16:04;-3.20;1.00
816;DHT22;25928;51.062;13.752;2022-12-18T18:18:30;-1.60;1.00
816;DHT22;25928;51.062;13.752;2022-12-18T18:20:56;-1.60;1.00
816;DHT22;25928;51.062;13.752;2022-12-18T18:23:21;-1.50;1.00
816;DHT22;25928;51.062;13.752;2022-12-18T18:25:53;-1.50;1.00
816;DHT22;25928;51.062;13.752;2022-12-18T18:28:18;-1.40;1.00
816;DHT22;25928;51.062;13.752;2022-12-18T18:30:44;-1.40;1.00
816;DHT22;25928;51.062;13.752;2022-12-18T18:33:10;-1.40;1.00
816;DHT22;25928;51.062;13.752;2022-12-18T18:35:41;-1.40;1.00
816;DHT22;25928;51.062;13.752;2022-12-18T18:38:07;-1.40;1.00
816;DHT22;25928;51.062;13.752;2022-12-18T18:40:33;-1.40;1.00